Time;durP1;ratioP1;P1;durP2;ratioP2;P2;SDS_P1;SDS_P2;PMS_P1;PMS_P2;Temp;Humidity;BMP_temperature;BMP_pressure;BME280_temperature;BME280_humidity;BME280_pressure;Samples;Min_cycle;Max_cycle;Signal;HPM_P1;HPM_P2
2023/11/22 00:02:03;;;;;;;1.30;1.00;;;;;;;;;;5069763;28;20059;-56
2023/11/22 00:04:30;;;;;;;1.57;1.00;;;;;;;;;;5068897;28;20116;-56
2023/11/22 00:06:57;;;;;;;0.73;0.63;;;;;;;;;;5076528;28;20027;-56
2023/11/22 00:09:23;;;;;;;1.77;1.13;;;;;;;;;;5088601;28;20028;-56
2023/11/22 00:11:50;;;;;;;1.77;1.03;;;;;;;;;;5091802;28;20048;-57
2023/11/22 00:14:17;;;;;;;1.40;0.80;;;;;;;;;;5093427;28;20024;-56
2023/11/22 00:16:44;;;;;;;0.90;0.80;;;;;;;;;;5093185;28;20471;-56
2023/11/22 00:19:10;;;;;;;1.37;0.90;;;;;;;;;;5084452;28;20024;-56
2023/11/22 00:21:37;;;;;;;0.73;0.60;;;;;;;;;;5073735;28;20028;-57
2023/11/22 00:24:04;;;;;;;3.00;0.57;;;;;;;;;;5082199;28;20036;-56
2023/11/22 00:26:32;;;;;;;0.77;0.67;;;;;;;;;;5088482;28;20118;-56
2023/11/22 00:28:59;;;;;;;0.80;0.63;;;;;;;;;;5088373;28;20104;-56
2023/11/22 00:31:25;;;;;;;1.17;0.67;;;;;;;;;;5088743;28;20024;-56
2023/11/22 00:33:52;;;;;;;0.60;0.47;;;;;;;;;;5090496;28;20032;-56
2023/11/22 00:36:19;;;;;;;2.80;0.50;;;;;;;;;;5093080;28;20387;-57
2023/11/22 00:38:46;;;;;;;0.20;0.17;;;;;;;;;;5093818;28;20024;-56
2023/11/22 00:41:14;;;;;;;0.20;0.20;;;;;;;;;;5093266;28;20028;-57
2023/11/22 00:43:41;;;;;;;0.67;0.50;;;;;;;;;;5093966;28;20399;-56
2023/11/22 00:46:08;;;;;;;1.23;0.67;;;;;;;;;;5092125;28;20047;-57
2023/11/22 00:48:35;;;;;;;2.40;0.40;;;;;;;;;;5086791;28;20028;-57
2023/11/22 00:51:08;;;;;;;18.27;0.70;;;;;;;;;;5068141;28;20035;-56
2023/11/22 00:53:38;;;;;;;0.10;0.10;;;;;;;;;;5067928;28;20051;-56
2023/11/22 00:56:06;;;;;;;0.30;0.30;;;;;;;;;;5069226;28;20062;-56
2023/11/22 00:58:33;;;;;;;4.00;0.33;;;;;;;;;;5073093;28;20058;-57
2023/11/22 01:01:00;;;;;;;0.10;0.10;;;;;;;;;;5073345;28;20031;-58
2023/11/22 01:03:26;;;;;;;0.50;0.20;;;;;;;;;;5073223;28;20487;-57
2023/11/22 01:05:53;;;;;;;0.83;0.20;;;;;;;;;;5072819;28;20025;-56
2023/11/22 01:08:20;;;;;;;0.00;0.00;;;;;;;;;;5071690;28;20033;-57
2023/11/22 01:10:47;;;;;;;0.20;0.13;;;;;;;;;;5068038;28;20422;-57
2023/11/22 01:13:14;;;;;;;0.50;0.17;;;;;;;;;;5067491;28;20036;-57
2023/11/22 01:15:41;;;;;;;0.00;0.00;;;;;;;;;;5068849;28;20509;-57
2023/11/22 01:18:08;;;;;;;0.23;0.10;;;;;;;;;;5088317;28;20024;-57
2023/11/22 01:20:35;;;;;;;0.07;0.07;;;;;;;;;;5092928;28;20031;-57
2023/11/22 01:23:01;;;;;;;1.00;0.17;;;;;;;;;;5092917;28;20027;-57
2023/11/22 01:25:29;;;;;;;0.20;0.10;;;;;;;;;;5091936;28;20394;-57
2023/11/22 01:27:55;;;;;;;0.10;0.10;;;;;;;;;;5092838;28;20039;-57
2023/11/22 01:30:22;;;;;;;0.07;0.03;;;;;;;;;;5092129;28;20016;-57
2023/11/22 01:32:49;;;;;;;0.10;0.00;;;;;;;;;;5087607;28;20028;-57
2023/11/22 01:35:15;;;;;;;2.40;0.20;;;;;;;;;;5087778;28;20104;-57
2023/11/22 01:37:42;;;;;;;0.10;0.10;;;;;;;;;;5087635;28;20394;-57
2023/11/22 01:40:09;;;;;;;0.00;0.00;;;;;;;;;;5087367;28;20479;-57
2023/11/22 01:42:36;;;;;;;0.07;0.00;;;;;;;;;;5077972;28;20414;-57
2023/11/22 01:45:04;;;;;;;0.33;0.20;;;;;;;;;;5072216;28;20041;-57
2023/11/22 01:47:31;;;;;;;0.30;0.10;;;;;;;;;;5072233;28;20074;-56
2023/11/22 01:49:58;;;;;;;5.40;0.23;;;;;;;;;;5072076;28;20021;-56
2023/11/22 01:52:25;;;;;;;0.23;0.10;;;;;;;;;;5072271;28;20118;-57
2023/11/22 01:54:51;;;;;;;0.00;0.00;;;;;;;;;;5067713;28;20040;-57
2023/11/22 01:57:19;;;;;;;0.00;0.00;;;;;;;;;;5067004;28;20021;-57
2023/11/22 01:59:47;;;;;;;0.00;0.00;;;;;;;;;;5067121;28;20525;-57
2023/11/22 02:02:13;;;;;;;3.40;0.30;;;;;;;;;;5067039;28;20024;-57
2023/11/22 02:04:40;;;;;;;0.00;0.00;;;;;;;;;;5070594;28;20032;-57
2023/11/22 02:07:07;;;;;;;0.00;0.00;;;;;;;;;;5072112;28;20125;-56
2023/11/22 02:09:34;;;;;;;0.00;0.00;;;;;;;;;;5079619;28;20020;-57
2023/11/22 02:12:01;;;;;;;0.00;0.00;;;;;;;;;;5092188;28;20371;-56
2023/11/22 02:14:27;;;;;;;0.07;0.00;;;;;;;;;;5091872;28;20121;-56
2023/11/22 02:16:54;;;;;;;0.00;0.00;;;;;;;;;;5088558;28;20158;-56
2023/11/22 02:19:20;;;;;;;0.03;0.03;;;;;;;;;;5087061;28;20476;-57
2023/11/22 02:21:47;;;;;;;0.10;0.10;;;;;;;;;;5086925;28;20378;-57
2023/11/22 02:24:14;;;;;;;1.90;0.30;;;;;;;;;;5076585;28;20504;-57
2023/11/22 02:26:47;;;;;;;0.00;0.00;;;;;;;;;;5069603;28;20491;-57
2023/11/22 02:29:13;;;;;;;0.10;0.10;;;;;;;;;;5071921;28;20031;-56
2023/11/22 02:31:45;;;;;;;0.10;0.00;;;;;;;;;;5071940;28;20487;-57
2023/11/22 02:34:11;;;;;;;0.10;0.10;;;;;;;;;;5072021;28;20097;-56
2023/11/22 02:36:38;;;;;;;0.00;0.00;;;;;;;;;;5072522;28;20044;-56
2023/11/22 02:39:06;;;;;;;0.07;0.07;;;;;;;;;;5081036;28;20024;-56
2023/11/22 02:41:33;;;;;;;0.00;0.00;;;;;;;;;;5091089;28;20113;-56
2023/11/22 02:44:00;;;;;;;0.00;0.00;;;;;;;;;;5090580;28;20039;-57
2023/11/22 02:46:27;;;;;;;0.37;0.13;;;;;;;;;;5087409;28;20075;-56
2023/11/22 02:48:56;;;;;;;0.00;0.00;;;;;;;;;;5093122;28;20066;-57
2023/11/22 02:51:23;;;;;;;0.33;0.20;;;;;;;;;;5095841;28;20035;-56
2023/11/22 02:53:51;;;;;;;0.13;0.10;;;;;;;;;;5094483;28;20095;-56
2023/11/22 02:56:17;;;;;;;0.13;0.10;;;;;;;;;;5088421;28;20051;-56
2023/11/22 02:58:45;;;;;;;0.23;0.20;;;;;;;;;;5095310;28;20028;-56
2023/11/22 03:01:12;;;;;;;1.70;0.33;;;;;;;;;;5092985;28;20024;-57
2023/11/22 03:03:39;;;;;;;0.30;0.10;;;;;;;;;;5090579;28;20024;-57
2023/11/22 03:06:06;;;;;;;0.33;0.13;;;;;;;;;;5089989;28;20039;-57
2023/11/22 03:08:33;;;;;;;0.33;0.20;;;;;;;;;;5090674;28;20059;-57
2023/11/22 03:10:59;;;;;;;0.37;0.23;;;;;;;;;;5092000;28;20031;-56
2023/11/22 03:13:26;;;;;;;0.10;0.10;;;;;;;;;;5095351;28;20016;-57
2023/11/22 03:15:53;;;;;;;0.00;0.00;;;;;;;;;;5075235;28;20028;-56
2023/11/22 03:18:21;;;;;;;0.57;0.30;;;;;;;;;;5075233;28;20078;-56
2023/11/22 03:20:47;;;;;;;0.03;0.03;;;;;;;;;;5074386;28;20028;-57
2023/11/22 03:23:16;;;;;;;0.00;0.00;;;;;;;;;;5074322;28;20055;-57
2023/11/22 03:25:43;;;;;;;0.00;0.00;;;;;;;;;;5074935;28;20052;-57
2023/11/22 03:28:10;;;;;;;0.00;0.00;;;;;;;;;;5089642;28;20551;-56
2023/11/22 03:30:37;;;;;;;0.10;0.10;;;;;;;;;;5081991;28;20028;-56
2023/11/22 03:33:04;;;;;;;0.67;0.10;;;;;;;;;;5074873;28;20107;-57
2023/11/22 03:35:31;;;;;;;0.07;0.07;;;;;;;;;;5074616;28;20024;-56
2023/11/22 03:37:58;;;;;;;0.10;0.10;;;;;;;;;;5074770;28;20048;-56
2023/11/22 03:40:24;;;;;;;0.00;0.00;;;;;;;;;;5074517;28;20021;-56
2023/11/22 03:42:51;;;;;;;0.30;0.17;;;;;;;;;;5074749;28;20024;-56
2023/11/22 03:45:18;;;;;;;0.33;0.20;;;;;;;;;;5075082;28;20037;-56
2023/11/22 03:47:44;;;;;;;0.40;0.13;;;;;;;;;;5069244;28;20032;-56
2023/11/22 03:50:11;;;;;;;0.40;0.23;;;;;;;;;;5068935;28;20025;-56
2023/11/22 03:52:38;;;;;;;0.20;0.17;;;;;;;;;;5069535;28;20552;-56
2023/11/22 03:55:05;;;;;;;0.67;0.23;;;;;;;;;;5069325;28;20036;-56
2023/11/22 03:57:32;;;;;;;0.30;0.10;;;;;;;;;;5074197;28;20024;-56
2023/11/22 03:59:59;;;;;;;0.10;0.10;;;;;;;;;;5056185;28;20036;-56
2023/11/22 04:02:27;;;;;;;0.33;0.27;;;;;;;;;;5074355;28;20429;-56
2023/11/22 04:04:54;;;;;;;0.33;0.20;;;;;;;;;;5074110;28;20078;-57
2023/11/22 04:07:20;;;;;;;0.10;0.10;;;;;;;;;;5074320;28;20426;-56
2023/11/22 04:09:47;;;;;;;0.00;0.00;;;;;;;;;;5075717;28;20094;-56
2023/11/22 04:12:13;;;;;;;0.30;0.20;;;;;;;;;;5089005;28;20028;-56
2023/11/22 04:14:40;;;;;;;0.17;0.07;;;;;;;;;;5088968;28;20409;-56
2023/11/22 04:17:07;;;;;;;0.03;0.00;;;;;;;;;;5081534;28;20035;-58
2023/11/22 04:19:33;;;;;;;0.77;0.17;;;;;;;;;;5072886;28;20033;-56
2023/11/22 04:22:00;;;;;;;0.00;0.00;;;;;;;;;;5073902;28;20020;-56
2023/11/22 04:24:26;;;;;;;0.47;0.20;;;;;;;;;;5075842;28;20048;-56
2023/11/22 04:26:53;;;;;;;0.10;0.00;;;;;;;;;;5073999;28;20024;-56
2023/11/22 04:29:20;;;;;;;0.23;0.17;;;;;;;;;;5073974;28;20025;-56
2023/11/22 04:31:46;;;;;;;0.20;0.10;;;;;;;;;;5069521;28;20333;-56
2023/11/22 04:34:13;;;;;;;0.00;0.00;;;;;;;;;;5068314;28;20334;-56
2023/11/22 04:36:40;;;;;;;0.20;0.10;;;;;;;;;;5086785;28;20103;-56
2023/11/22 04:39:10;;;;;;;0.17;0.00;;;;;;;;;;5081582;28;20079;-56
2023/11/22 04:41:36;;;;;;;0.10;0.10;;;;;;;;;;5071683;28;20479;-56
2023/11/22 04:44:03;;;;;;;0.10;0.00;;;;;;;;;;5073475;28;20099;-56
2023/11/22 04:46:30;;;;;;;0.17;0.00;;;;;;;;;;5074704;28;20032;-56
2023/11/22 04:48:57;;;;;;;0.10;0.00;;;;;;;;;;5093635;28;20517;-56
2023/11/22 04:51:24;;;;;;;0.10;0.00;;;;;;;;;;5093452;28;20016;-55
2023/11/22 04:53:51;;;;;;;0.00;0.00;;;;;;;;;;5089877;28;20506;-56
2023/11/22 04:56:18;;;;;;;0.30;0.20;;;;;;;;;;5088529;28;20020;-56
2023/11/22 04:58:44;;;;;;;0.30;0.10;;;;;;;;;;5088338;28;20031;-56
2023/11/22 05:01:11;;;;;;;4.93;0.40;;;;;;;;;;5087906;28;20039;-56
2023/11/22 05:03:37;;;;;;;0.10;0.00;;;;;;;;;;5090876;28;20482;-56
2023/11/22 05:06:05;;;;;;;0.10;0.10;;;;;;;;;;5093174;28;20119;-55
2023/11/22 05:08:31;;;;;;;0.53;0.40;;;;;;;;;;5093278;28;20028;-56
2023/11/22 05:10:58;;;;;;;2.30;0.33;;;;;;;;;;5093107;28;20020;-56
2023/11/22 05:13:25;;;;;;;1.27;0.50;;;;;;;;;;5081462;28;20028;-56
2023/11/22 05:15:53;;;;;;;0.50;0.40;;;;;;;;;;5090553;28;20020;-56
2023/11/22 05:18:19;;;;;;;0.30;0.10;;;;;;;;;;5087871;28;20032;-56
2023/11/22 05:20:48;;;;;;;0.17;0.10;;;;;;;;;;5087592;28;20020;-56
2023/11/22 05:23:15;;;;;;;0.00;0.00;;;;;;;;;;5087904;28;20097;-56
2023/11/22 05:25:41;;;;;;;0.03;0.00;;;;;;;;;;5078050;28;20122;-56
2023/11/22 05:28:08;;;;;;;0.00;0.00;;;;;;;;;;5084888;28;20024;-57
2023/11/22 05:30:35;;;;;;;1.17;0.20;;;;;;;;;;5072458;28;20021;-56
2023/11/22 05:33:01;;;;;;;0.00;0.00;;;;;;;;;;5073703;28;20374;-56
2023/11/22 05:35:28;;;;;;;0.10;0.10;;;;;;;;;;5074962;28;20033;-56
2023/11/22 05:37:55;;;;;;;0.00;0.00;;;;;;;;;;5091237;28;21437;-56
2023/11/22 05:40:21;;;;;;;0.00;0.00;;;;;;;;;;5078303;28;20139;-56
2023/11/22 05:42:48;;;;;;;0.00;0.00;;;;;;;;;;5067293;28;20491;-56
2023/11/22 05:45:15;;;;;;;0.00;0.00;;;;;;;;;;5067439;28;20036;-56
2023/11/22 05:47:42;;;;;;;3.30;0.27;;;;;;;;;;5067859;28;20471;-56
2023/11/22 05:50:09;;;;;;;0.00;0.00;;;;;;;;;;5072069;28;20029;-56
2023/11/22 05:52:36;;;;;;;0.23;0.10;;;;;;;;;;5072076;28;20423;-56
2023/11/22 05:55:03;;;;;;;0.00;0.00;;;;;;;;;;5079159;28;20046;-56
2023/11/22 05:57:30;;;;;;;0.00;0.00;;;;;;;;;;5092347;28;20024;-56
2023/11/22 05:59:57;;;;;;;0.00;0.00;;;;;;;;;;5075317;28;20543;-56
2023/11/22 06:02:24;;;;;;;0.00;0.00;;;;;;;;;;5067451;28;20098;-56
2023/11/22 06:04:51;;;;;;;0.00;0.00;;;;;;;;;;5066975;28;20028;-56
2023/11/22 06:07:17;;;;;;;0.00;0.00;;;;;;;;;;5067023;28;20395;-56
2023/11/22 06:09:44;;;;;;;0.00;0.00;;;;;;;;;;5067273;28;20059;-56
2023/11/22 06:12:11;;;;;;;0.80;0.33;;;;;;;;;;5071635;28;20032;-56
2023/11/22 06:14:37;;;;;;;0.40;0.30;;;;;;;;;;5072181;28;20025;-56
2023/11/22 06:17:04;;;;;;;0.20;0.20;;;;;;;;;;5072050;28;20493;-55
2023/11/22 06:19:31;;;;;;;2.70;0.30;;;;;;;;;;5071923;28;20138;-58
2023/11/22 06:21:57;;;;;;;0.10;0.10;;;;;;;;;;5091830;28;20031;-55
2023/11/22 06:24:25;;;;;;;1.00;0.50;;;;;;;;;;5070332;28;20505;-56
2023/11/22 06:26:52;;;;;;;4.87;0.77;;;;;;;;;;5066450;28;20017;-56
2023/11/22 06:29:20;;;;;;;0.70;0.47;;;;;;;;;;5066801;28;20025;-56
2023/11/22 06:31:47;;;;;;;1.93;0.40;;;;;;;;;;5066643;28;20035;-56
2023/11/22 06:34:13;;;;;;;0.23;0.23;;;;;;;;;;5075093;28;20548;-55
2023/11/22 06:36:40;;;;;;;1.23;0.27;;;;;;;;;;5091838;28;20066;-56
2023/11/22 06:39:08;;;;;;;0.33;0.30;;;;;;;;;;5075678;28;20475;-55
2023/11/22 06:41:35;;;;;;;0.20;0.20;;;;;;;;;;5071793;28;20020;-56
2023/11/22 06:44:03;;;;;;;1.50;0.30;;;;;;;;;;5071654;28;20020;-55
2023/11/22 06:46:29;;;;;;;0.50;0.20;;;;;;;;;;5067456;28;20104;-56
2023/11/22 06:48:56;;;;;;;0.40;0.30;;;;;;;;;;5067547;28;20048;-56
2023/11/22 06:51:23;;;;;;;1.47;0.67;;;;;;;;;;5066485;28;20401;-56
2023/11/22 06:53:52;;;;;;;0.43;0.30;;;;;;;;;;5066606;28;20044;-56
2023/11/22 06:56:18;;;;;;;0.80;0.20;;;;;;;;;;5069734;28;20033;-55
2023/11/22 06:58:45;;;;;;;0.70;0.30;;;;;;;;;;5071634;28;20487;-56
2023/11/22 07:01:12;;;;;;;0.37;0.20;;;;;;;;;;5071624;28;20031;-55
2023/11/22 07:03:39;;;;;;;0.53;0.37;;;;;;;;;;5071039;28;20017;-55
2023/11/22 07:06:05;;;;;;;0.43;0.27;;;;;;;;;;5071467;28;20064;-56
2023/11/22 07:08:32;;;;;;;0.83;0.50;;;;;;;;;;5083585;28;20040;-56
2023/11/22 07:10:59;;;;;;;0.63;0.47;;;;;;;;;;5086616;28;20024;-56
2023/11/22 07:13:26;;;;;;;0.17;0.17;;;;;;;;;;5086707;28;20016;-56
2023/11/22 07:15:54;;;;;;;2.43;0.20;;;;;;;;;;5086618;28;20016;-55
2023/11/22 07:18:24;;;;;;;0.20;0.20;;;;;;;;;;5088593;28;20105;-56
2023/11/22 07:20:50;;;;;;;0.63;0.33;;;;;;;;;;5091316;28;20544;-56
2023/11/22 07:23:19;;;;;;;0.27;0.10;;;;;;;;;;5075767;28;20032;-55
2023/11/22 07:25:46;;;;;;;0.20;0.20;;;;;;;;;;5074678;28;20044;-55
2023/11/22 07:28:13;;;;;;;1.07;0.33;;;;;;;;;;5074758;28;20089;-56
2023/11/22 07:30:41;;;;;;;1.23;0.37;;;;;;;;;;5072323;28;20013;-56
2023/11/22 07:33:09;;;;;;;0.53;0.30;;;;;;;;;;5069449;28;20020;-56
2023/11/22 07:35:35;;;;;;;0.40;0.30;;;;;;;;;;5069791;28;20493;-55
2023/11/22 07:38:03;;;;;;;9.37;0.57;;;;;;;;;;5069794;28;20029;-55
2023/11/22 07:40:30;;;;;;;0.00;0.00;;;;;;;;;;5071499;28;20025;-55
2023/11/22 07:42:56;;;;;;;0.50;0.30;;;;;;;;;;5074654;28;20024;-56
2023/11/22 07:45:23;;;;;;;0.63;0.23;;;;;;;;;;5074675;28;20387;-55
2023/11/22 07:47:52;;;;;;;0.60;0.40;;;;;;;;;;5083773;28;20039;-55
2023/11/22 07:50:19;;;;;;;0.50;0.30;;;;;;;;;;5094850;28;20055;-56
2023/11/22 07:52:48;;;;;;;1.30;0.70;;;;;;;;;;5092797;28;20024;-56
2023/11/22 07:55:17;;;;;;;1.17;0.43;;;;;;;;;;5089337;28;20027;-55
2023/11/22 07:57:45;;;;;;;3.03;0.97;;;;;;;;;;5089641;28;20074;-55
2023/11/22 08:00:12;;;;;;;0.80;0.50;;;;;;;;;;5088283;28;20028;-55
2023/11/22 08:02:39;;;;;;;1.27;0.60;;;;;;;;;;5089927;28;20043;-56
2023/11/22 08:05:09;;;;;;;0.27;0.27;;;;;;;;;;5094291;28;20392;-55
2023/11/22 08:07:40;;;;;;;0.30;0.30;;;;;;;;;;5094450;28;20074;-55
2023/11/22 08:10:27;;;;;;;2.63;0.60;;;;;;;;;;5094258;28;20038;-55
2023/11/22 08:12:54;;;;;;;0.83;0.57;;;;;;;;;;5081198;28;20115;-56
2023/11/22 08:15:21;;;;;;;1.07;0.40;;;;;;;;;;5071563;28;20036;-55
2023/11/22 08:17:48;;;;;;;0.10;0.10;;;;;;;;;;5068726;28;20024;-55
2023/11/22 08:20:17;;;;;;;0.20;0.13;;;;;;;;;;5069011;28;20076;-56
2023/11/22 08:22:50;;;;;;;0.17;0.17;;;;;;;;;;5068896;28;20028;-56
2023/11/22 08:25:18;;;;;;;1.20;0.73;;;;;;;;;;5070175;28;20052;-55
2023/11/22 08:27:44;;;;;;;1.70;0.60;;;;;;;;;;5073960;28;20031;-55
2023/11/22 08:30:15;;;;;;;1.23;0.40;;;;;;;;;;5073888;28;20024;-55
2023/11/22 08:32:48;;;;;;;1.00;0.43;;;;;;;;;;5073626;28;20024;-55
2023/11/22 08:35:15;;;;;;;0.40;0.23;;;;;;;;;;5073200;28;20016;-55
2023/11/22 08:37:42;;;;;;;0.10;0.10;;;;;;;;;;5078163;28;20040;-56
2023/11/22 08:40:14;;;;;;;0.33;0.23;;;;;;;;;;5088880;28;20149;-55
2023/11/22 08:42:41;;;;;;;0.00;0.00;;;;;;;;;;5088567;28;20543;-55
2023/11/22 08:45:08;;;;;;;0.07;0.07;;;;;;;;;;5088752;28;20036;-55
2023/11/22 08:47:35;;;;;;;0.10;0.10;;;;;;;;;;5090028;28;20462;-55
2023/11/22 08:50:03;;;;;;;0.17;0.10;;;;;;;;;;5093313;28;20036;-55
2023/11/22 08:52:30;;;;;;;0.03;0.03;;;;;;;;;;5093431;28;20539;-55
2023/11/22 08:54:57;;;;;;;0.83;0.37;;;;;;;;;;5093095;28;20016;-55
2023/11/22 08:57:24;;;;;;;0.07;0.07;;;;;;;;;;5093718;28;20021;-55
2023/11/22 08:59:50;;;;;;;0.00;0.00;;;;;;;;;;5091933;28;20390;-56
2023/11/22 09:02:17;;;;;;;1.23;0.23;;;;;;;;;;5088515;28;20038;-55
2023/11/22 09:04:44;;;;;;;0.10;0.07;;;;;;;;;;5084424;28;20040;-55
2023/11/22 09:07:11;;;;;;;0.40;0.10;;;;;;;;;;5068070;28;20031;-55
2023/11/22 09:09:37;;;;;;;0.20;0.13;;;;;;;;;;5068384;28;20024;-55
2023/11/22 09:12:12;;;;;;;0.57;0.20;;;;;;;;;;5072893;28;20023;-55
2023/11/22 09:14:41;;;;;;;0.00;0.00;;;;;;;;;;5072841;28;20034;-56
2023/11/22 09:17:10;;;;;;;0.10;0.07;;;;;;;;;;5072809;28;20097;-55
2023/11/22 09:19:37;;;;;;;0.00;0.00;;;;;;;;;;5072600;28;20031;-55
2023/11/22 09:22:08;;;;;;;2.73;0.60;;;;;;;;;;5071693;28;20099;-55
2023/11/22 09:24:36;;;;;;;0.00;0.00;;;;;;;;;;5067341;28;20039;-55
2023/11/22 09:27:10;;;;;;;0.10;0.07;;;;;;;;;;5067042;28;20547;-55
2023/11/22 09:29:37;;;;;;;0.17;0.10;;;;;;;;;;5067537;28;20074;-55
2023/11/22 09:32:05;;;;;;;0.10;0.10;;;;;;;;;;5069207;28;20012;-55
2023/11/22 09:34:32;;;;;;;0.10;0.10;;;;;;;;;;5072305;28;20044;-56
2023/11/22 09:36:59;;;;;;;0.00;0.00;;;;;;;;;;5072596;28;20020;-55
2023/11/22 09:39:27;;;;;;;0.10;0.00;;;;;;;;;;5072535;28;20020;-55
2023/11/22 09:41:54;;;;;;;1.47;0.30;;;;;;;;;;5072391;28;20070;-55
2023/11/22 09:44:21;;;;;;;0.10;0.10;;;;;;;;;;5071152;28;20044;-55
2023/11/22 09:46:50;;;;;;;0.20;0.10;;;;;;;;;;5066911;28;20035;-55
2023/11/22 09:49:24;;;;;;;0.00;0.00;;;;;;;;;;5067098;28;20041;-56
2023/11/22 09:51:52;;;;;;;0.00;0.00;;;;;;;;;;5067268;28;20017;-55
2023/11/22 09:54:19;;;;;;;0.00;0.00;;;;;;;;;;5067648;28;20027;-55
2023/11/22 09:56:50;;;;;;;0.10;0.03;;;;;;;;;;5072050;28;20020;-55
2023/11/22 09:59:19;;;;;;;0.00;0.00;;;;;;;;;;5078371;28;20494;-56
2023/11/22 10:01:46;;;;;;;0.00;0.00;;;;;;;;;;5092523;28;20020;-55
2023/11/22 10:04:13;;;;;;;0.00;0.00;;;;;;;;;;5092073;28;20024;-55
2023/11/22 10:06:40;;;;;;;0.00;0.00;;;;;;;;;;5091879;28;20035;-55
2023/11/22 10:09:08;;;;;;;0.23;0.13;;;;;;;;;;5087043;28;20101;-55
2023/11/22 10:11:43;;;;;;;0.53;0.20;;;;;;;;;;5087229;28;20422;-55
2023/11/22 10:14:10;;;;;;;0.00;0.00;;;;;;;;;;5069829;28;20032;-55
2023/11/22 10:16:37;;;;;;;0.03;0.03;;;;;;;;;;5066834;28;20112;-55
2023/11/22 10:19:07;;;;;;;0.00;0.00;;;;;;;;;;5071919;28;20056;-55
2023/11/22 10:21:34;;;;;;;0.53;0.20;;;;;;;;;;5072161;28;20055;-55
2023/11/22 10:24:02;;;;;;;0.27;0.00;;;;;;;;;;5073412;28;20021;-55
2023/11/22 10:26:31;;;;;;;0.10;0.03;;;;;;;;;;5091855;28;20140;-55
2023/11/22 10:28:58;;;;;;;0.00;0.00;;;;;;;;;;5091639;28;20024;-56
2023/11/22 10:31:25;;;;;;;0.17;0.03;;;;;;;;;;5086483;28;20103;-55
2023/11/22 10:33:52;;;;;;;0.00;0.00;;;;;;;;;;5086866;28;20035;-55
2023/11/22 10:36:20;;;;;;;0.07;0.07;;;;;;;;;;5086711;28;20024;-55
2023/11/22 10:38:47;;;;;;;0.00;0.00;;;;;;;;;;5085125;28;20028;-57
2023/11/22 10:41:14;;;;;;;0.00;0.00;;;;;;;;;;5090934;28;20115;-55
2023/11/22 10:43:44;;;;;;;0.00;0.00;;;;;;;;;;5091872;28;20078;-55
2023/11/22 10:46:13;;;;;;;0.47;0.30;;;;;;;;;;5091946;28;20029;-55
2023/11/22 10:48:40;;;;;;;0.27;0.17;;;;;;;;;;5091752;28;20028;-56
2023/11/22 10:51:07;;;;;;;0.00;0.00;;;;;;;;;;5091835;28;20154;-55
2023/11/22 10:53:35;;;;;;;0.00;0.00;;;;;;;;;;5084618;28;20101;-55
2023/11/22 10:56:19;;;;;;;0.67;0.27;;;;;;;;;;5076491;28;20033;-55
2023/11/22 10:58:50;;;;;;;0.00;0.00;;;;;;;;;;5084662;28;20107;-55
2023/11/22 11:01:17;;;;;;;0.00;0.00;;;;;;;;;;5090703;28;20107;-55
2023/11/22 11:03:49;;;;;;;0.00;0.00;;;;;;;;;;5095535;28;20046;-55
2023/11/22 11:06:16;;;;;;;0.00;0.00;;;;;;;;;;5095668;28;20028;-55
2023/11/22 11:08:45;;;;;;;1.70;0.30;;;;;;;;;;5095061;28;20480;-55
2023/11/22 11:11:12;;;;;;;0.00;0.00;;;;;;;;;;5095660;28;20028;-55
2023/11/22 11:13:40;;;;;;;1.53;0.60;;;;;;;;;;5095497;28;20085;-55
2023/11/22 11:16:08;;;;;;;0.73;0.40;;;;;;;;;;5089969;28;20028;-55
2023/11/22 11:18:36;;;;;;;0.37;0.20;;;;;;;;;;5086314;28;20033;-55
2023/11/22 11:21:10;;;;;;;0.10;0.03;;;;;;;;;;5070011;28;20021;-55
2023/11/22 11:23:44;;;;;;;4.20;0.20;;;;;;;;;;5069822;28;20068;-55
2023/11/22 11:26:21;;;;;;;0.30;0.10;;;;;;;;;;5074877;28;20063;-55
2023/11/22 11:28:49;;;;;;;0.83;0.27;;;;;;;;;;5074797;28;20471;-55
2023/11/22 11:31:17;;;;;;;0.00;0.00;;;;;;;;;;5074900;28;20031;-55
2023/11/22 11:33:53;;;;;;;0.03;0.00;;;;;;;;;;5074664;28;20115;-55
2023/11/22 11:36:31;;;;;;;0.93;0.10;;;;;;;;;;5074139;28;20103;-55
2023/11/22 11:39:00;;;;;;;0.93;0.27;;;;;;;;;;5069117;28;20070;-55
2023/11/22 11:41:28;;;;;;;0.00;0.00;;;;;;;;;;5069498;28;20290;-55
2023/11/22 11:43:57;;;;;;;0.20;0.13;;;;;;;;;;5084247;28;20546;-55
2023/11/22 11:46:25;;;;;;;0.00;0.00;;;;;;;;;;5090300;28;20032;-55
2023/11/22 11:48:52;;;;;;;0.00;0.00;;;;;;;;;;5094886;28;20073;-55
2023/11/22 11:51:21;;;;;;;0.00;0.00;;;;;;;;;;5094866;28;20115;-55
2023/11/22 11:53:48;;;;;;;0.87;0.27;;;;;;;;;;5094645;28;20043;-55
2023/11/22 11:56:15;;;;;;;0.00;0.00;;;;;;;;;;5094551;28;20028;-55
2023/11/22 11:58:43;;;;;;;0.13;0.03;;;;;;;;;;5093611;28;20047;-55
2023/11/22 12:01:10;;;;;;;0.10;0.07;;;;;;;;;;5089311;28;20475;-55
2023/11/22 12:03:38;;;;;;;0.10;0.10;;;;;;;;;;5089369;28;20039;-55
2023/11/22 12:06:05;;;;;;;0.10;0.10;;;;;;;;;;5089367;28;20119;-55
2023/11/22 12:08:38;;;;;;;0.57;0.30;;;;;;;;;;5080311;28;20032;-55
2023/11/22 12:11:10;;;;;;;1.60;0.20;;;;;;;;;;5073029;28;20044;-55
2023/11/22 12:13:46;;;;;;;0.00;0.00;;;;;;;;;;5073903;28;20387;-55
2023/11/22 12:16:17;;;;;;;0.20;0.13;;;;;;;;;;5073919;28;20029;-55
2023/11/22 12:18:52;;;;;;;0.10;0.10;;;;;;;;;;5073779;28;20063;-55
2023/11/22 12:21:18;;;;;;;;;;;;;;;;;;5080879;28;20046;-55
2023/11/22 12:23:46;;;;;;;0.00;0.00;;;;;;;;;;5086433;28;19908;-55
2023/11/22 12:38:49;;;;;;;0.37;0.20;;;;;;;;;;5064756;27;2642557;-56
2023/11/22 12:41:17;;;;;;;0.80;0.30;;;;;;;;;;5125045;28;20585;-56
2023/11/22 12:43:44;;;;;;;9.03;0.60;;;;;;;;;;5124853;28;20043;-57
2023/11/22 12:46:16;;;;;;;1.40;0.57;;;;;;;;;;5124204;28;20054;-56
2023/11/22 12:48:43;;;;;;;0.20;0.17;;;;;;;;;;5125300;28;20019;-56
2023/11/22 12:51:26;;;;;;;1.60;0.47;;;;;;;;;;5130088;28;20045;-56
2023/11/22 12:53:53;;;;;;;6.10;0.37;;;;;;;;;;5130353;28;20374;-56
2023/11/22 12:56:20;;;;;;;1.70;0.33;;;;;;;;;;5130044;28;20027;-56
2023/11/22 12:58:47;;;;;;;0.27;0.13;;;;;;;;;;5129501;28;20481;-56
2023/11/22 13:01:14;;;;;;;2.37;0.43;;;;;;;;;;5129151;28;20429;-56
2023/11/22 13:03:42;;;;;;;1.80;0.80;;;;;;;;;;5125021;28;20023;-56
2023/11/22 13:06:09;;;;;;;0.33;0.30;;;;;;;;;;5124959;28;20426;-56
2023/11/22 13:08:36;;;;;;;0.47;0.30;;;;;;;;;;5112030;28;20052;-57
2023/11/22 13:11:04;;;;;;;0.90;0.30;;;;;;;;;;5104441;28;20393;-57
2023/11/22 13:13:31;;;;;;;0.43;0.30;;;;;;;;;;5109107;28;20553;-57
2023/11/22 13:16:01;;;;;;;0.53;0.43;;;;;;;;;;5109046;28;20099;-56
2023/11/22 13:18:28;;;;;;;1.20;0.37;;;;;;;;;;5109155;28;20032;-57
2023/11/22 13:20:55;;;;;;;6.50;0.83;;;;;;;;;;5109155;28;20024;-57
2023/11/22 13:23:22;;;;;;;0.37;0.37;;;;;;;;;;5114289;28;20115;-56
2023/11/22 13:25:49;;;;;;;0.33;0.20;;;;;;;;;;5124492;28;20524;-56
2023/11/22 13:28:16;;;;;;;0.30;0.30;;;;;;;;;;5124410;28;20035;-56
2023/11/22 13:30:43;;;;;;;4.90;0.40;;;;;;;;;;5124154;28;20102;-56
2023/11/22 13:33:13;;;;;;;2.10;0.63;;;;;;;;;;5124561;28;20023;-56
2023/11/22 13:35:40;;;;;;;1.47;0.73;;;;;;;;;;5128962;28;20489;-56
2023/11/22 13:38:10;;;;;;;1.53;0.60;;;;;;;;;;5124121;28;20432;-56
2023/11/22 13:40:41;;;;;;;1.70;0.80;;;;;;;;;;5115539;28;20389;-56
2023/11/22 13:43:08;;;;;;;0.60;0.30;;;;;;;;;;5115356;28;20024;-57
2023/11/22 13:45:38;;;;;;;4.00;1.10;;;;;;;;;;5115192;28;20462;-57
2023/11/22 13:48:06;;;;;;;0.37;0.37;;;;;;;;;;5110434;28;20378;-56
2023/11/22 13:50:34;;;;;;;2.57;1.20;;;;;;;;;;5089856;28;20067;-57
2023/11/22 13:53:00;;;;;;;5.97;1.93;;;;;;;;;;5090441;28;20028;-57
2023/11/22 13:55:27;;;;;;;8.47;4.83;;;;;;;;;;5110411;28;20103;-57
2023/11/22 13:57:59;;;;;;;5.90;4.00;;;;;;;;;;5114465;28;20024;-57
2023/11/22 14:00:32;;;;;;;7.57;3.93;;;;;;;;;;5115073;28;20028;-56
2023/11/22 14:03:06;;;;;;;25.90;2.63;;;;;;;;;;5115075;28;20083;-57
2023/11/22 14:05:37;;;;;;;10.60;2.80;;;;;;;;;;5115116;28;20169;-56
2023/11/22 14:08:08;;;;;;;1.57;1.10;;;;;;;;;;5114828;28;20020;-56
2023/11/22 14:10:35;;;;;;;0.80;0.63;;;;;;;;;;5110057;28;20024;-57
2023/11/22 14:13:02;;;;;;;0.93;0.60;;;;;;;;;;5109872;28;20023;-57
2023/11/22 14:15:33;;;;;;;0.40;0.40;;;;;;;;;;5105729;28;20481;-57
2023/11/22 14:18:00;;;;;;;1.17;0.50;;;;;;;;;;5089453;28;20032;-57
2023/11/22 14:20:30;;;;;;;0.87;0.47;;;;;;;;;;5094287;28;20028;-57
2023/11/22 14:22:57;;;;;;;2.13;0.80;;;;;;;;;;5094352;28;20028;-56
2023/11/22 14:25:24;;;;;;;1.87;0.80;;;;;;;;;;5094237;28;20027;-57
2023/11/22 14:27:54;;;;;;;0.47;0.40;;;;;;;;;;5094063;28;20076;-57
2023/11/22 14:30:21;;;;;;;0.77;0.50;;;;;;;;;;5095712;28;20038;-56
2023/11/22 14:32:49;;;;;;;0.63;0.40;;;;;;;;;;5089294;28;20055;-57
2023/11/22 14:35:17;;;;;;;0.70;0.50;;;;;;;;;;5069020;28;20087;-57
2023/11/22 14:37:44;;;;;;;0.47;0.30;;;;;;;;;;5068891;28;20035;-57
2023/11/22 14:40:20;;;;;;;0.30;0.20;;;;;;;;;;5088149;28;20372;-57
2023/11/22 14:42:51;;;;;;;1.13;0.50;;;;;;;;;;5098329;28;20024;-57
2023/11/22 14:45:21;;;;;;;0.40;0.37;;;;;;;;;;5112299;28;20489;-57
2023/11/22 14:47:51;;;;;;;1.47;0.63;;;;;;;;;;5111971;28;20040;-57
2023/11/22 14:50:18;;;;;;;2.00;0.67;;;;;;;;;;5112940;28;20359;-57
2023/11/22 14:52:47;;;;;;;1.60;0.77;;;;;;;;;;5113779;28;20027;-58
2023/11/22 14:55:15;;;;;;;0.53;0.40;;;;;;;;;;5068461;28;20074;-57
2023/11/22 14:57:42;;;;;;;1.37;0.53;;;;;;;;;;5067757;28;20028;-57
2023/11/22 15:00:15;;;;;;;0.60;0.33;;;;;;;;;;5067746;28;20418;-57